Time;durP1;ratioP1;P1;durP2;ratioP2;P2;SDS_P1;SDS_P2;PMS_P1;PMS_P2;Temp;Humidity;BMP_temperature;BMP_pressure;BME280_temperature;BME280_humidity;BME280_pressure;Samples;Min_cycle;Max_cycle;Signal;HPM_P1;HPM_P2
2020/12/24 00:00:52;;;;;;;2.25;0.50;;;11.20;89.40;;;;;;6319218;22;20086;-81
2020/12/24 00:03:19;;;;;;;1.65;0.50;;;11.20;89.40;;;;;;6317317;22;20337;-82
2020/12/24 00:05:45;;;;;;;1.75;0.40;;;11.10;89.70;;;;;;6316679;22;20015;-80
2020/12/24 00:08:12;;;;;;;1.75;1.48;;;11.10;89.80;;;;;;6319069;22;20023;-80
2020/12/24 00:10:39;;;;;;;1.38;0.47;;;11.10;89.30;;;;;;6318872;22;20306;-82
2020/12/24 00:13:07;;;;;;;1.08;0.40;;;11.10;89.00;;;;;;6318696;22;20023;-82
2020/12/24 00:15:35;;;;;;;1.25;0.30;;;11.10;88.80;;;;;;6316931;22;20023;-83
2020/12/24 00:18:02;;;;;;;2.20;0.40;;;11.00;88.80;;;;;;6317674;22;20049;-81
2020/12/24 00:20:29;;;;;;;1.30;0.30;;;11.00;88.50;;;;;;6317266;22;20027;-82
2020/12/24 00:22:55;;;;;;;0.65;0.30;;;11.10;87.10;;;;;;6318683;22;20023;-80
2020/12/24 00:25:22;;;;;;;1.25;0.30;;;11.10;86.30;;;;;;6293965;22;20023;-80
2020/12/24 00:27:50;;;;;;;0.63;0.25;;;11.10;85.70;;;;;;6318898;22;20030;-81
2020/12/24 00:30:17;;;;;;;3.03;0.40;;;11.10;84.80;;;;;;6319747;22;20213;-81
2020/12/24 00:32:45;;;;;;;1.75;0.43;;;11.10;85.20;;;;;;6319459;22;20026;-83
2020/12/24 00:35:13;;;;;;;2.65;0.50;;;11.00;85.00;;;;;;6316421;22;20007;-80
2020/12/24 00:37:39;;;;;;;3.13;0.50;;;11.00;84.30;;;;;;6319965;22;20023;-81
2020/12/24 00:40:07;;;;;;;2.88;0.43;;;10.90;84.20;;;;;;6317273;22;20019;-82
2020/12/24 00:42:35;;;;;;;1.25;0.32;;;10.90;83.60;;;;;;6317054;22;20029;-81
2020/12/24 00:45:03;;;;;;;1.42;0.30;;;10.80;83.20;;;;;;6316707;22;20015;-82
2020/12/24 00:47:30;;;;;;;2.30;0.32;;;10.70;82.40;;;;;;6318166;22;20015;-81
2020/12/24 00:49:58;;;;;;;3.70;0.55;;;10.60;82.90;;;;;;6317457;22;20057;-81
2020/12/24 00:52:24;;;;;;;3.25;0.77;;;10.60;81.00;;;;;;6290337;22;20023;-79
2020/12/24 00:54:51;;;;;;;0.98;0.57;;;10.50;81.20;;;;;;6316813;22;20019;-81
2020/12/24 00:57:18;;;;;;;0.60;0.17;;;10.50;80.50;;;;;;6316726;22;20023;-80
2020/12/24 00:59:46;;;;;;;1.08;0.30;;;10.50;79.80;;;;;;6290111;22;20369;-80
2020/12/24 01:02:13;;;;;;;5.10;0.95;;;10.40;80.40;;;;;;6316658;22;20015;-81
2020/12/24 01:04:40;;;;;;;0.57;0.28;;;10.40;79.90;;;;;;6315862;22;20217;-84
2020/12/24 01:07:07;;;;;;;1.23;0.32;;;10.30;79.80;;;;;;6317577;22;20019;-80
2020/12/24 01:09:34;;;;;;;2.58;0.52;;;10.30;80.20;;;;;;6315947;22;20069;-81
2020/12/24 01:12:01;;;;;;;3.45;0.60;;;10.20;80.80;;;;;;6317405;22;20294;-81
2020/12/24 01:14:29;;;;;;;2.97;0.38;;;10.10;80.80;;;;;;6316640;22;20451;-82
2020/12/24 01:16:55;;;;;;;1.75;0.40;;;10.10;80.70;;;;;;6315881;22;20015;-80
2020/12/24 01:19:22;;;;;;;1.15;0.38;;;10.00;81.10;;;;;;6316208;22;20015;-81
2020/12/24 01:21:49;;;;;;;3.40;0.95;;;10.00;81.30;;;;;;6316094;22;20027;-80
2020/12/24 01:24:17;;;;;;;2.28;0.30;;;9.90;82.00;;;;;;6317093;22;20019;-81
2020/12/24 01:26:47;;;;;;;0.73;0.20;;;9.80;82.20;;;;;;6316433;22;20019;-79
2020/12/24 01:29:14;;;;;;;4.03;0.25;;;9.90;81.90;;;;;;6316575;22;20038;-80
2020/12/24 01:31:45;;;;;;;3.05;0.50;;;9.90;82.00;;;;;;6316270;22;20026;-82
2020/12/24 01:34:12;;;;;;;0.70;0.38;;;9.80;82.30;;;;;;6316237;22;20019;-81
2020/12/24 01:36:40;;;;;;;0.98;0.38;;;9.70;82.80;;;;;;6317183;22;20068;-81
2020/12/24 01:39:07;;;;;;;0.85;0.20;;;9.70;82.50;;;;;;6315799;22;20034;-81
2020/12/24 01:41:35;;;;;;;1.75;0.25;;;9.70;82.70;;;;;;6317271;22;20019;-82
2020/12/24 01:44:02;;;;;;;2.78;0.73;;;9.60;82.70;;;;;;6317416;22;20011;-80
2020/12/24 01:46:29;;;;;;;2.20;0.40;;;9.60;82.80;;;;;;6316616;22;20027;-84
2020/12/24 01:48:56;;;;;;;2.15;0.40;;;9.50;82.60;;;;;;6317326;22;20027;-82
2020/12/24 01:51:26;;;;;;;0.57;0.28;;;9.50;82.50;;;;;;6315899;22;20076;-81
2020/12/24 01:53:54;;;;;;;;;;;9.50;81.90;;;;;;6316092;22;20202;-81
2020/12/24 01:56:21;;;;;;;0.95;0.32;;;9.60;81.70;;;;;;6315726;22;19914;-82
2020/12/24 01:58:50;;;;;;;4.50;0.30;;;9.50;82.30;;;;;;6317252;22;20022;-81
2020/12/24 02:01:16;;;;;;;2.45;0.32;;;9.40;82.40;;;;;;6317173;22;20038;-81
2020/12/24 02:03:43;;;;;;;3.03;0.47;;;9.50;82.10;;;;;;6314681;22;20016;-81
2020/12/24 02:06:11;;;;;;;2.97;0.55;;;9.40;82.20;;;;;;6289752;22;20068;-81
2020/12/24 02:08:38;;;;;;;2.38;0.40;;;9.30;82.60;;;;;;6317562;22;20258;-81
2020/12/24 02:11:07;;;;;;;3.55;0.38;;;9.30;82.20;;;;;;6315311;22;20030;-81
2020/12/24 02:13:34;;;;;;;0.73;0.13;;;9.20;81.60;;;;;;6315340;22;20057;-80
2020/12/24 02:16:01;;;;;;;1.48;0.30;;;9.20;81.60;;;;;;6317710;22;20014;-79
2020/12/24 02:18:28;;;;;;;3.70;0.30;;;9.20;82.20;;;;;;6289860;22;20019;-81
2020/12/24 02:20:57;;;;;;;0.68;0.20;;;9.00;82.80;;;;;;6317015;22;20015;-81
2020/12/24 02:23:24;;;;;;;0.80;0.20;;;9.10;82.10;;;;;;6316895;22;20058;-81
2020/12/24 02:25:51;;;;;;;2.38;0.40;;;9.00;82.50;;;;;;6316990;22;20031;-81
2020/12/24 02:28:17;;;;;;;1.55;0.50;;;9.10;81.60;;;;;;6315070;22;20022;-81
2020/12/24 02:30:45;;;;;;;1.75;0.20;;;9.00;82.40;;;;;;6316629;22;20023;-81
2020/12/24 02:33:12;;;;;;;6.72;0.80;;;9.00;82.20;;;;;;6314691;22;20027;-81
2020/12/24 02:35:39;;;;;;;1.80;0.60;;;8.90;82.40;;;;;;6289269;22;20030;-81
2020/12/24 02:38:07;;;;;;;1.88;0.68;;;8.90;82.70;;;;;;6288711;22;20022;-81
2020/12/24 02:40:37;;;;;;;3.78;0.68;;;8.80;82.60;;;;;;6316685;22;20015;-80
2020/12/24 02:43:04;;;;;;;5.85;0.20;;;8.80;82.20;;;;;;6315156;22;20042;-82
2020/12/24 02:45:31;;;;;;;3.00;0.20;;;8.80;82.30;;;;;;6289028;22;20076;-80
2020/12/24 02:48:01;;;;;;;7.13;0.75;;;8.80;81.80;;;;;;6316634;22;20045;-81
2020/12/24 02:50:28;;;;;;;2.43;0.93;;;8.70;81.50;;;;;;6315940;22;20019;-80
2020/12/24 02:52:55;;;;;;;3.22;0.65;;;8.80;81.60;;;;;;6318807;22;20246;-81
2020/12/24 02:55:22;;;;;;;3.40;0.50;;;8.80;81.30;;;;;;6319444;22;20060;-82
2020/12/24 02:57:49;;;;;;;1.70;0.25;;;8.70;81.70;;;;;;6318594;22;20019;-81
2020/12/24 03:00:17;;;;;;;4.28;0.85;;;8.70;81.20;;;;;;6319433;22;20015;-83
2020/12/24 03:02:44;;;;;;;3.53;0.50;;;8.70;81.20;;;;;;6265539;22;20306;-80
2020/12/24 03:05:11;;;;;;;2.08;0.60;;;8.60;81.10;;;;;;6316021;22;20019;-81
2020/12/24 03:07:40;;;;;;;1.42;0.52;;;8.60;80.40;;;;;;6314792;22;20027;-81
2020/12/24 03:10:12;;;;;;;3.38;0.22;;;8.60;80.30;;;;;;6315150;22;20398;-82
2020/12/24 03:12:42;;;;;;;4.88;0.40;;;8.60;80.40;;;;;;6289388;22;20023;-80
2020/12/24 03:15:11;;;;;;;2.85;0.57;;;8.60;80.60;;;;;;6314755;22;20026;-80
2020/12/24 03:17:38;;;;;;;8.10;0.70;;;8.50;80.60;;;;;;6316275;22;20022;-81
2020/12/24 03:20:07;;;;;;;5.47;0.50;;;8.40;81.00;;;;;;6315930;22;20074;-80
2020/12/24 03:22:34;;;;;;;2.40;0.70;;;8.20;81.90;;;;;;6314850;22;20202;-81
2020/12/24 03:25:04;;;;;;;4.38;1.02;;;8.20;81.60;;;;;;6315373;22;20026;-81
2020/12/24 03:27:31;;;;;;;3.75;0.35;;;8.30;81.30;;;;;;6316850;22;20273;-80
2020/12/24 03:30:02;;;;;;;1.63;0.60;;;8.20;81.20;;;;;;6314784;22;20015;-81
2020/12/24 03:32:29;;;;;;;2.80;0.40;;;8.30;80.20;;;;;;6314903;22;20026;-81
2020/12/24 03:34:56;;;;;;;2.92;0.82;;;8.30;80.30;;;;;;6289180;22;20019;-81
2020/12/24 03:37:25;;;;;;;2.05;0.70;;;8.30;80.10;;;;;;6289209;22;20053;-81
2020/12/24 03:39:54;;;;;;;1.33;0.30;;;8.30;80.70;;;;;;6315098;22;20297;-80
2020/12/24 03:42:25;;;;;;;5.78;0.60;;;8.20;80.80;;;;;;6289045;22;20225;-80
2020/12/24 03:44:52;;;;;;;2.22;0.57;;;8.10;81.40;;;;;;6314368;22;20034;-81
2020/12/24 03:47:19;;;;;;;4.70;0.43;;;8.10;81.50;;;;;;6316021;22;20054;-80
2020/12/24 03:49:46;;;;;;;5.35;1.13;;;8.10;81.70;;;;;;6314351;22;20019;-81
2020/12/24 03:52:16;;;;;;;1.52;0.68;;;8.00;82.00;;;;;;6288622;22;20015;-81
2020/12/24 03:54:43;;;;;;;4.80;0.50;;;8.10;81.90;;;;;;6316230;22;20065;-81
2020/12/24 03:57:10;;;;;;;2.72;0.50;;;8.00;82.20;;;;;;6316471;22;20030;-81
2020/12/24 03:59:37;;;;;;;3.38;0.60;;;8.20;81.80;;;;;;6316110;22;20047;-81
2020/12/24 04:02:05;;;;;;;4.00;0.50;;;8.20;81.60;;;;;;6314332;22;20023;-80
2020/12/24 04:04:32;;;;;;;0.98;0.28;;;8.20;81.90;;;;;;6314567;22;20069;-80
2020/12/24 04:06:59;;;;;;;1.95;0.32;;;8.20;82.00;;;;;;6315128;22;20027;-81
2020/12/24 04:09:26;;;;;;;2.20;0.25;;;8.30;81.60;;;;;;6316827;22;20023;-79
2020/12/24 04:11:53;;;;;;;1.17;0.28;;;8.40;81.20;;;;;;6314504;22;20026;-82
2020/12/24 04:14:20;;;;;;;0.82;0.32;;;8.50;80.70;;;;;;6314655;22;20034;-79
2020/12/24 04:16:50;;;;;;;4.50;1.92;;;8.60;79.60;;;;;;6315780;22;20022;-82
2020/12/24 04:19:20;;;;;;;5.10;0.70;;;8.70;79.20;;;;;;4571342;22;10023388;-80
2020/12/24 04:21:48;;;;;;;4.28;0.65;;;8.70;79.50;;;;;;2156216;22;10001929;-81
2020/12/24 04:24:14;;;;;;;2.15;0.40;;;8.60;79.10;;;;;;6254848;23;20020;-82
2020/12/24 04:26:41;;;;;;;1.63;0.25;;;8.70;79.00;;;;;;6254660;23;20065;-81
2020/12/24 04:29:08;;;;;;;2.45;0.52;;;8.70;78.40;;;;;;6256578;23;20020;-80
2020/12/24 04:31:41;;;;;;;2.20;0.80;;;8.60;78.40;;;;;;6256464;23;20031;-81
2020/12/24 04:34:08;;;;;;;0.63;0.10;;;8.50;78.60;;;;;;6254667;23;20067;-81
2020/12/24 04:36:35;;;;;;;5.40;0.93;;;8.50;78.30;;;;;;6255810;22;20024;-80
2020/12/24 04:39:03;;;;;;;4.88;0.55;;;8.40;78.60;;;;;;6256370;23;20020;-79
2020/12/24 04:41:30;;;;;;;8.75;1.25;;;8.30;79.10;;;;;;6256885;23;20307;-79
2020/12/24 04:43:58;;;;;;;5.15;1.15;;;8.40;79.10;;;;;;6256483;23;20326;-79
2020/12/24 04:46:29;;;;;;;2.40;0.50;;;8.20;79.40;;;;;;6255857;23;20028;-79
2020/12/24 04:49:01;;;;;;;4.53;0.75;;;8.10;79.70;;;;;;6255067;23;20027;-79
2020/12/24 04:51:30;;;;;;;5.75;0.55;;;8.00;80.30;;;;;;6229547;23;20020;-80
2020/12/24 04:54:01;;;;;;;5.47;0.57;;;7.90;80.50;;;;;;6256395;22;20043;-79
2020/12/24 04:56:34;;;;;;;2.95;0.52;;;7.80;80.50;;;;;;6229210;23;20079;-79
2020/12/24 04:59:05;;;;;;;5.20;0.77;;;7.70;81.10;;;;;;6254797;23;20016;-81
2020/12/24 05:01:33;;;;;;;4.45;1.23;;;7.70;81.20;;;;;;6256835;22;20322;-80
2020/12/24 05:04:00;;;;;;;4.22;0.30;;;7.70;81.20;;;;;;6256065;22;20254;-81
2020/12/24 05:06:29;;;;;;;4.60;0.45;;;7.70;81.30;;;;;;6256184;22;20359;-81
2020/12/24 05:08:57;;;;;;;2.83;0.40;;;7.60;81.40;;;;;;6228835;23;20024;-81
2020/12/24 05:11:28;;;;;;;1.98;0.52;;;7.60;81.30;;;;;;6256062;22;20020;-79
2020/12/24 05:13:59;;;;;;;2.72;0.40;;;7.70;81.20;;;;;;6255876;23;20027;-80
2020/12/24 05:16:26;;;;;;;3.90;0.60;;;7.70;80.90;;;;;;6229220;23;20016;-81
2020/12/24 05:18:54;;;;;;;2.25;0.32;;;7.70;80.70;;;;;;6228832;23;20023;-81
2020/12/24 05:21:39;;;;;;;2.67;0.50;;;7.80;80.40;;;;;;6256137;23;20027;-79
2020/12/24 05:24:22;;;;;;;3.30;0.52;;;7.90;80.50;;;;;;6254158;23;20035;-80
2020/12/24 05:26:48;;;;;;;1.50;0.40;;;8.00;80.40;;;;;;6254082;23;20016;-81
2020/12/24 05:29:16;;;;;;;4.13;0.50;;;8.00;80.20;;;;;;6255687;22;20024;-81
2020/12/24 05:31:43;;;;;;;5.25;0.80;;;8.00;80.20;;;;;;6253885;23;20020;-81
2020/12/24 05:34:28;;;;;;;5.65;0.55;;;8.00;80.00;;;;;;6255809;22;20047;-80
2020/12/24 05:37:09;;;;;;;5.93;1.10;;;8.10;79.90;;;;;;6254419;23;20035;-80
2020/12/24 05:39:36;;;;;;;5.15;0.47;;;8.10;79.90;;;;;;6253915;23;20321;-82
2020/12/24 05:42:05;;;;;;;4.60;0.88;;;8.10;79.40;;;;;;6255074;23;20354;-81
2020/12/24 05:44:34;;;;;;;3.50;0.63;;;8.10;79.70;;;;;;6255737;23;20032;-82
2020/12/24 05:47:03;;;;;;;6.85;0.60;;;8.20;79.80;;;;;;6255472;22;20023;-82
2020/12/24 05:49:35;;;;;;;5.13;0.80;;;8.10;79.70;;;;;;6254251;23;20028;-81
2020/12/24 05:52:05;;;;;;;7.35;0.50;;;8.20;79.50;;;;;;6255264;22;20040;-81
2020/12/24 05:54:36;;;;;;;3.17;0.50;;;8.30;79.10;;;;;;6228847;23;20012;-80
2020/12/24 05:57:12;;;;;;;7.70;0.75;;;8.30;79.10;;;;;;6255894;23;20023;-81
2020/12/24 05:59:41;;;;;;;2.95;0.93;;;8.30;78.70;;;;;;6255684;23;20016;-79
2020/12/24 06:02:18;;;;;;;6.38;0.60;;;8.30;78.60;;;;;;6255821;22;20027;-84
2020/12/24 06:04:53;;;;;;;3.53;0.88;;;8.30;78.90;;;;;;6254820;23;20042;-83
2020/12/24 06:07:32;;;;;;;2.47;0.57;;;8.40;78.80;;;;;;6253901;23;20034;-84
2020/12/24 06:10:06;;;;;;;1.85;0.40;;;8.40;79.00;;;;;;6254123;23;20203;-81
2020/12/24 06:12:53;;;;;;;6.75;0.85;;;8.40;79.10;;;;;;6233248;23;20051;-81
2020/12/24 06:15:25;;;;;;;5.18;0.50;;;8.40;79.70;;;;;;6255456;23;20024;-82
2020/12/24 06:17:57;;;;;;;1.95;0.47;;;8.40;79.60;;;;;;6255832;22;20067;-80
2020/12/24 06:20:30;;;;;;;6.30;0.70;;;8.40;79.90;;;;;;6253657;23;20303;-81
2020/12/24 06:22:58;;;;;;;2.97;0.22;;;8.30;80.80;;;;;;6254138;23;20441;-81
2020/12/24 06:25:25;;;;;;;6.15;0.88;;;8.40;81.30;;;;;;6253826;23;20028;-84
2020/12/24 06:27:58;;;;;;;3.15;0.45;;;8.20;82.40;;;;;;6255882;22;20047;-81
2020/12/24 06:30:29;;;;;;;4.47;0.57;;;8.10;83.20;;;;;;6256126;23;20024;-81
2020/12/24 06:32:55;;;;;;;4.97;1.75;;;8.10;83.80;;;;;;6255822;22;20074;-79
2020/12/24 06:35:36;;;;;;;9.00;1.77;;;8.00;84.30;;;;;;6256126;22;20058;-80
2020/12/24 06:38:05;;;;;;;2.90;0.50;;;8.10;85.20;;;;;;6255624;23;20199;-81
2020/12/24 06:40:33;;;;;;;1.45;0.50;;;8.00;83.50;;;;;;6228932;23;20054;-82
2020/12/24 06:43:00;;;;;;;9.00;1.65;;;8.00;84.20;;;;;;6254145;23;20307;-81
2020/12/24 06:45:37;;;;;;;0.88;0.20;;;8.00;84.30;;;;;;6254940;23;20083;-81
2020/12/24 06:48:28;;;;;;;4.38;0.63;;;7.90;85.20;;;;;;6254179;23;20079;-81
2020/12/24 06:51:00;;;;;;;;;;;7.80;86.00;;;;;;6233041;23;20446;-81
2020/12/24 06:53:32;;;;;;;0.73;0.40;;;7.70;87.30;;;;;;6280069;22;20198;-80
2020/12/24 06:56:24;;;;;;;3.10;1.15;;;7.50;88.40;;;;;;6254727;23;20024;-81
2020/12/24 06:58:56;;;;;;;4.72;0.60;;;7.40;89.50;;;;;;6253443;23;20058;-81
2020/12/24 07:01:26;;;;;;;3.67;0.50;;;7.40;90.20;;;;;;6254468;23;20361;-80
2020/12/24 07:03:55;;;;;;;6.35;1.35;;;7.40;89.70;;;;;;6255511;22;20020;-80
2020/12/24 07:06:52;;;;;;;0.75;0.30;;;7.40;89.70;;;;;;6255076;22;20079;-80
2020/12/24 07:09:46;;;;;;;5.85;0.63;;;7.30;90.00;;;;;;6202813;23;20115;-80
2020/12/24 07:12:33;;;;;;;3.33;0.40;;;7.30;90.90;;;;;;6184347;23;20016;-80
2020/12/24 07:15:23;;;;;;;3.65;0.38;;;7.30;90.40;;;;;;6253678;23;20066;-80
2020/12/24 07:17:55;;;;;;;1.53;0.60;;;7.30;90.50;;;;;;6256156;23;20050;-80
2020/12/24 07:20:25;;;;;;;5.20;0.90;;;7.30;90.70;;;;;;6258292;22;20048;-80
2020/12/24 07:22:56;;;;;;;2.25;0.52;;;7.30;90.10;;;;;;6254703;23;20016;-80
2020/12/24 07:25:30;;;;;;;1.95;0.70;;;7.30;90.00;;;;;;6253873;23;20299;-81
2020/12/24 07:27:57;;;;;;;5.35;0.47;;;7.20;91.00;;;;;;6228492;23;20242;-79
2020/12/24 07:30:24;;;;;;;3.90;0.40;;;7.20;91.10;;;;;;6254072;23;20019;-81
2020/12/24 07:32:53;;;;;;;3.88;0.60;;;7.20;91.30;;;;;;6253680;23;20068;-80
2020/12/24 07:35:20;;;;;;;4.93;1.17;;;7.20;91.50;;;;;;6252041;23;20020;-81
2020/12/24 07:37:49;;;;;;;1.92;0.38;;;7.20;91.80;;;;;;6254796;22;20016;-81
2020/12/24 07:40:16;;;;;;;2.22;0.43;;;7.10;92.30;;;;;;6254945;22;20042;-81
2020/12/24 07:42:43;;;;;;;5.43;0.50;;;7.00;92.50;;;;;;6254873;22;20016;-79
2020/12/24 07:45:12;;;;;;;4.13;0.60;;;7.10;92.90;;;;;;6253529;23;20087;-81
2020/12/24 07:47:49;;;;;;;4.53;0.88;;;7.00;93.00;;;;;;6255187;23;20020;-80
2020/12/24 07:50:29;;;;;;;7.85;0.50;;;7.00;93.20;;;;;;6254403;23;20020;-80
2020/12/24 07:52:56;;;;;;;3.07;0.97;;;7.00;93.30;;;;;;6257387;22;20080;-81
2020/12/24 07:55:23;;;;;;;7.60;0.98;;;7.00;93.30;;;;;;6255645;23;20055;-81
2020/12/24 07:57:50;;;;;;;2.70;0.95;;;7.10;93.60;;;;;;6257239;22;20023;-81
2020/12/24 08:00:18;;;;;;;2.85;0.68;;;7.00;93.80;;;;;;6255563;23;20020;-80
2020/12/24 08:02:44;;;;;;;2.90;0.43;;;7.10;93.80;;;;;;6256734;23;20211;-81
2020/12/24 08:05:11;;;;;;;2.58;0.40;;;7.10;93.40;;;;;;6280430;22;20012;-81
2020/12/24 08:07:39;;;;;;;3.92;0.40;;;7.10;93.60;;;;;;6280865;22;20047;-81
2020/12/24 08:10:15;;;;;;;3.33;0.70;;;7.10;93.40;;;;;;6257471;23;20102;-79
2020/12/24 08:12:43;;;;;;;5.28;0.50;;;7.10;93.70;;;;;;6256771;23;20051;-79
2020/12/24 08:15:15;;;;;;;7.47;0.35;;;7.10;94.10;;;;;;6256841;23;20024;-79
2020/12/24 08:17:49;;;;;;;12.07;0.77;;;7.10;94.10;;;;;;6257779;23;20026;-81
2020/12/24 08:20:17;;;;;;;2.97;0.60;;;7.20;94.10;;;;;;6258308;23;20024;-81
2020/12/24 08:22:51;;;;;;;5.40;1.63;;;7.10;94.20;;;;;;6258180;23;20087;-80
2020/12/24 08:25:19;;;;;;;6.75;1.55;;;7.10;94.20;;;;;;6258907;22;20309;-79
2020/12/24 08:27:47;;;;;;;3.17;1.33;;;7.10;94.00;;;;;;6257036;23;20031;-80
2020/12/24 08:30:16;;;;;;;2.70;0.40;;;7.20;94.20;;;;;;6256372;23;20016;-80
2020/12/24 08:32:43;;;;;;;7.53;0.93;;;7.20;93.10;;;;;;6257013;23;20020;-80
2020/12/24 08:35:11;;;;;;;2.13;0.73;;;7.30;93.70;;;;;;6256425;23;20024;-80
2020/12/24 08:37:38;;;;;;;6.50;0.43;;;7.20;93.60;;;;;;6256990;23;20039;-82
2020/12/24 08:40:20;;;;;;;2.08;0.50;;;7.20;93.50;;;;;;6256891;23;20028;-80
2020/12/24 08:42:48;;;;;;;1.95;0.50;;;7.30;92.10;;;;;;6256681;23;20020;-80
2020/12/24 08:45:15;;;;;;;2.83;0.60;;;7.30;92.20;;;;;;6256605;23;20075;-80
2020/12/24 08:47:42;;;;;;;0.43;0.20;;;7.30;92.20;;;;;;6256387;23;20027;-82
2020/12/24 08:50:09;;;;;;;2.55;0.73;;;7.30;92.40;;;;;;6257182;22;20026;-81
2020/12/24 08:52:37;;;;;;;0.35;0.17;;;7.20;92.40;;;;;;6281865;22;20028;-81
2020/12/24 08:55:06;;;;;;;1.00;0.30;;;7.20;92.50;;;;;;6230553;23;20263;-80
2020/12/24 08:57:34;;;;;;;3.30;0.43;;;7.30;92.80;;;;;;6230348;23;20020;-81
2020/12/24 09:00:10;;;;;;;2.85;0.65;;;7.20;93.00;;;;;;6257828;23;20398;-80
2020/12/24 09:02:40;;;;;;;2.05;0.50;;;7.20;93.30;;;;;;6254978;23;20040;-81
2020/12/24 09:05:08;;;;;;;0.75;0.30;;;7.30;93.20;;;;;;6257033;22;20012;-81
2020/12/24 09:07:36;;;;;;;3.38;0.45;;;7.20;93.50;;;;;;6257202;23;20057;-80
2020/12/24 09:10:08;;;;;;;3.05;0.40;;;7.20;94.10;;;;;;6256547;23;20023;-79
2020/12/24 09:12:38;;;;;;;4.78;0.40;;;7.20;94.00;;;;;;6257685;23;20024;-80
2020/12/24 09:15:07;;;;;;;3.35;0.57;;;7.20;94.50;;;;;;6257850;23;20042;-80
2020/12/24 09:17:34;;;;;;;2.55;0.60;;;7.20;94.30;;;;;;6256340;23;20023;-81
2020/12/24 09:20:06;;;;;;;2.53;0.40;;;7.30;93.50;;;;;;6231440;23;20028;-80
2020/12/24 09:22:33;;;;;;;6.28;0.50;;;7.20;93.50;;;;;;6232351;23;20016;-81
2020/12/24 09:25:00;;;;;;;3.20;0.30;;;7.20;94.00;;;;;;6258535;22;20043;-81
2020/12/24 09:27:27;;;;;;;0.85;0.32;;;7.20;93.20;;;;;;6257203;23;20066;-79
2020/12/24 09:29:55;;;;;;;2.55;0.38;;;7.40;92.90;;;;;;6231414;23;20131;-80
2020/12/24 09:32:23;;;;;;;0.88;0.30;;;7.40;92.60;;;;;;6257375;23;20066;-82
2020/12/24 09:34:50;;;;;;;2.67;0.40;;;7.40;92.70;;;;;;6256029;23;20015;-82
2020/12/24 09:37:16;;;;;;;3.00;0.30;;;7.40;92.50;;;;;;6257683;23;20012;-82
2020/12/24 09:39:44;;;;;;;4.72;0.40;;;7.40;92.60;;;;;;6257289;23;20020;-80
2020/12/24 09:42:12;;;;;;;1.10;0.38;;;7.50;92.30;;;;;;6257202;23;20048;-82
2020/12/24 09:44:39;;;;;;;2.53;0.30;;;7.60;92.20;;;;;;6281016;22;20023;-82
2020/12/24 09:47:07;;;;;;;4.05;0.57;;;7.60;92.50;;;;;;6256772;23;20031;-80
2020/12/24 09:49:34;;;;;;;1.58;0.90;;;7.60;92.20;;;;;;6255476;23;20024;-83
2020/12/24 09:52:01;;;;;;;1.45;0.28;;;7.50;92.50;;;;;;6256013;23;20085;-82
2020/12/24 09:54:28;;;;;;;1.80;0.40;;;7.50;92.20;;;;;;6256557;22;20016;-80
2020/12/24 09:56:56;;;;;;;0.35;0.10;;;7.60;92.20;;;;;;6253559;23;20207;-82
2020/12/24 09:59:25;;;;;;;2.85;0.28;;;7.50;92.20;;;;;;6256235;23;20016;-82
2020/12/24 10:01:54;;;;;;;0.57;0.30;;;7.60;91.30;;;;;;6254445;23;20083;-80
2020/12/24 10:04:21;;;;;;;0.93;0.30;;;7.60;91.40;;;;;;6256382;23;20020;-81
2020/12/24 10:06:48;;;;;;;2.33;0.43;;;7.60;91.10;;;;;;6256476;23;20028;-82
2020/12/24 10:09:15;;;;;;;0.73;0.35;;;7.70;91.20;;;;;;6255562;23;20016;-80
2020/12/24 10:11:46;;;;;;;3.58;0.63;;;7.70;91.00;;;;;;6255772;22;20028;-82
2020/12/24 10:14:12;;;;;;;1.83;0.40;;;7.80;91.40;;;;;;6255985;22;20032;-81
2020/12/24 10:16:39;;;;;;;2.15;0.55;;;7.80;91.50;;;;;;6229156;23;20169;-82
2020/12/24 10:19:06;;;;;;;1.00;0.50;;;7.90;90.50;;;;;;6229587;23;20035;-82
2020/12/24 10:21:34;;;;;;;1.90;0.10;;;8.00;89.30;;;;;;6255308;23;20044;-81
2020/12/24 10:24:01;;;;;;;0.57;0.20;;;8.00;89.20;;;;;;6257072;22;20146;-80
2020/12/24 10:26:28;;;;;;;1.40;0.20;;;8.00;89.90;;;;;;6255389;23;20075;-81
2020/12/24 10:28:55;;;;;;;1.60;0.32;;;7.90;89.90;;;;;;6229276;23;20212;-80
2020/12/24 10:31:24;;;;;;;1.35;0.30;;;7.90;88.90;;;;;;6229889;23;20045;-80
2020/12/24 10:33:52;;;;;;;1.88;0.17;;;7.90;89.70;;;;;;6256468;23;20027;-81
2020/12/24 10:36:22;;;;;;;1.75;0.32;;;7.70;89.90;;;;;;6254494;23;20065;-80
2020/12/24 10:38:50;;;;;;;2.50;0.50;;;7.80;89.40;;;;;;6256294;23;20031;-81
2020/12/24 10:41:17;;;;;;;1.45;0.82;;;7.80;90.20;;;;;;6255006;23;20088;-81
2020/12/24 10:43:44;;;;;;;1.90;0.47;;;7.90;90.10;;;;;;6256913;23;20020;-84
2020/12/24 10:46:15;;;;;;;1.20;0.32;;;8.00;89.70;;;;;;6254329;23;20020;-79
2020/12/24 10:48:42;;;;;;;2.10;0.20;;;7.90;88.70;;;;;;6254805;23;20028;-80
2020/12/24 10:51:09;;;;;;;3.13;1.08;;;7.90;89.40;;;;;;6280633;22;20039;-81
2020/12/24 10:53:36;;;;;;;1.77;0.30;;;7.90;89.90;;;;;;6254455;23;20028;-79
2020/12/24 10:56:03;;;;;;;0.73;0.43;;;7.90;89.90;;;;;;6256588;23;20008;-81
2020/12/24 10:58:30;;;;;;;1.35;0.40;;;7.90;90.20;;;;;;6254989;23;20031;-81
2020/12/24 11:00:57;;;;;;;1.45;0.20;;;7.80;90.00;;;;;;6229703;23;20307;-81
2020/12/24 11:03:27;;;;;;;2.03;0.35;;;7.80;90.50;;;;;;6255529;23;20020;-80
2020/12/24 11:05:54;;;;;;;0.63;0.25;;;7.70;90.70;;;;;;6255249;23;20079;-80
2020/12/24 11:08:22;;;;;;;0.77;0.30;;;7.80;91.10;;;;;;6254473;23;20024;-81
2020/12/24 11:10:49;;;;;;;1.63;0.28;;;7.70;91.50;;;;;;6255899;23;20016;-79
2020/12/24 11:13:16;;;;;;;2.70;0.50;;;7.90;91.80;;;;;;6256024;23;20024;-82
2020/12/24 11:15:43;;;;;;;1.08;0.30;;;8.10;90.40;;;;;;6254978;23;20231;-81
2020/12/24 11:18:10;;;;;;;1.65;0.50;;;8.10;89.70;;;;;;6255918;23;20066;-80
2020/12/24 11:20:37;;;;;;;1.88;0.60;;;8.10;90.50;;;;;;6255023;23;20228;-80
2020/12/24 11:23:04;;;;;;;1.15;0.45;;;8.10;90.20;;;;;;6256201;23;20023;-80
2020/12/24 11:25:31;;;;;;;0.68;0.25;;;8.00;90.90;;;;;;6256491;23;20319;-81
2020/12/24 11:27:59;;;;;;;1.58;0.43;;;8.00;90.50;;;;;;6254179;23;20063;-82
2020/12/24 11:30:26;;;;;;;1.05;0.43;;;8.00;90.40;;;;;;6255811;23;20389;-78
2020/12/24 11:32:53;;;;;;;2.05;0.50;;;7.90;90.50;;;;;;6255477;23;20023;-80
2020/12/24 11:35:20;;;;;;;1.85;0.65;;;7.90;90.10;;;;;;6253948;23;20077;-81
2020/12/24 11:37:47;;;;;;;4.13;1.02;;;8.00;90.20;;;;;;6254099;23;20016;-80
2020/12/24 11:40:15;;;;;;;1.25;0.57;;;8.00;90.00;;;;;;6255671;22;20012;-82
2020/12/24 11:42:42;;;;;;;1.70;0.60;;;7.90;90.40;;;;;;6255188;22;20028;-81
2020/12/24 11:45:09;;;;;;;0.68;0.30;;;7.90;90.20;;;;;;6255804;22;20020;-81
2020/12/24 11:47:37;;;;;;;1.52;0.77;;;7.90;90.20;;;;;;6279277;22;20024;-83
2020/12/24 11:50:05;;;;;;;1.48;0.70;;;7.80;90.90;;;;;;6256070;22;20027;-79
2020/12/24 11:52:36;;;;;;;1.52;0.63;;;7.80;91.20;;;;;;6254924;22;20016;-81
2020/12/24 11:55:04;;;;;;;3.60;0.82;;;7.70;91.90;;;;;;6256244;23;20235;-79
2020/12/24 11:57:31;;;;;;;2.83;0.55;;;7.60;92.10;;;;;;6254865;23;20028;-80
2020/12/24 11:59:58;;;;;;;2.42;0.85;;;7.70;92.20;;;;;;6229358;23;20377;-79
2020/12/24 12:02:24;;;;;;;1.67;0.52;;;7.70;92.00;;;;;;6255646;22;20027;-81
2020/12/24 12:04:52;;;;;;;3.63;0.73;;;7.70;92.10;;;;;;6254165;23;20057;-81
2020/12/24 12:07:19;;;;;;;1.45;0.60;;;7.70;92.20;;;;;;6254298;23;20020;-79
2020/12/24 12:09:46;;;;;;;1.55;0.45;;;7.70;92.20;;;;;;6254075;23;20319;-82
2020/12/24 12:12:13;;;;;;;1.10;0.50;;;7.60;92.20;;;;;;6253806;23;20207;-81
2020/12/24 12:14:40;;;;;;;1.83;0.55;;;7.70;91.90;;;;;;6254619;23;20043;-79
2020/12/24 12:17:12;;;;;;;1.60;0.68;;;7.70;91.80;;;;;;6253079;23;20020;-81
2020/12/24 12:19:40;;;;;;;4.55;0.57;;;7.80;92.10;;;;;;6253058;23;20016;-79
2020/12/24 12:22:07;;;;;;;1.30;0.50;;;7.80;91.90;;;;;;6254311;23;20341;-81
2020/12/24 12:24:34;;;;;;;2.00;0.30;;;7.90;91.90;;;;;;6255170;23;20246;-80
2020/12/24 12:27:03;;;;;;;1.52;0.40;;;7.90;91.50;;;;;;6254397;23;20347;-81
2020/12/24 12:29:30;;;;;;;0.82;0.30;;;8.00;91.40;;;;;;6228432;23;20052;-80
2020/12/24 12:31:56;;;;;;;0.95;0.40;;;8.00;90.70;;;;;;6255500;23;20031;-80
2020/12/24 12:34:24;;;;;;;0.90;0.40;;;8.00;90.40;;;;;;6255218;22;20278;-81
2020/12/24 12:36:50;;;;;;;1.45;0.85;;;8.10;90.50;;;;;;6228593;23;20028;-81
2020/12/24 12:39:19;;;;;;;1.25;0.40;;;8.10;89.50;;;;;;6254784;23;20319;-81
2020/12/24 12:41:47;;;;;;;0.65;0.50;;;8.10;90.10;;;;;;6255469;23;20028;-80
2020/12/24 12:44:15;;;;;;;3.35;0.70;;;8.20;90.00;;;;;;6256557;22;20028;-81
2020/12/24 12:46:42;;;;;;;1.33;0.60;;;8.30;89.20;;;;;;6255841;23;20283;-79
2020/12/24 12:49:09;;;;;;;2.05;0.50;;;8.50;88.70;;;;;;6258103;22;20352;-79
2020/12/24 12:51:35;;;;;;;3.83;0.60;;;8.80;88.10;;;;;;6257136;22;20020;-78
2020/12/24 12:54:02;;;;;;;1.75;0.70;;;9.00;87.50;;;;;;6230930;23;20016;-80
2020/12/24 12:56:30;;;;;;;0.90;0.32;;;9.10;86.90;;;;;;6257832;23;20024;-80
2020/12/24 12:58:57;;;;;;;0.95;0.50;;;8.90;86.80;;;;;;6256843;23;20020;-81
2020/12/24 13:01:24;;;;;;;0.95;0.30;;;8.90;86.50;;;;;;6256939;23;20234;-80
2020/12/24 13:03:52;;;;;;;0.55;0.22;;;8.60;87.30;;;;;;6230639;23;20080;-82